Time;durP1;ratioP1;P1;durP2;ratioP2;P2;SDS_P1;SDS_P2;PMS_P1;PMS_P2;Temp;Humidity;BMP_temperature;BMP_pressure;BME280_temperature;BME280_humidity;BME280_pressure;Samples;Min_cycle;Max_cycle;Signal;HPM_P1;HPM_P2
2022/01/12 00:00:52;;;;;;;2.95;1.77;;;3.00;99.90;;;;;;5138695;27;19969;-78
2022/01/12 00:03:18;;;;;;;0.60;0.60;;;3.00;99.90;;;;;;5157048;27;20398;-78
2022/01/12 00:05:44;;;;;;;0.70;0.70;;;3.00;99.90;;;;;;5138345;27;20034;-77
2022/01/12 00:08:09;;;;;;;0.83;0.83;;;3.00;99.90;;;;;;5138299;27;20038;-77
2022/01/12 00:10:36;;;;;;;0.80;0.80;;;3.10;99.90;;;;;;5121516;27;20398;-78
2022/01/12 00:13:01;;;;;;;0.60;0.60;;;3.00;99.90;;;;;;5121101;27;20089;-79
2022/01/12 00:15:27;;;;;;;4.65;1.58;;;3.10;99.90;;;;;;5138773;27;20051;-77
2022/01/12 00:17:53;;;;;;;1.48;1.42;;;3.10;99.90;;;;;;5156179;27;20038;-77
2022/01/12 00:20:18;;;;;;;1.00;0.90;;;3.10;99.90;;;;;;5138009;27;20390;-77
2022/01/12 00:22:44;;;;;;;0.88;0.88;;;3.10;99.90;;;;;;5138172;27;20126;-79
2022/01/12 00:33:13;;;;;;;0.50;0.50;;;3.10;99.90;;;;;;5137866;27;20082;-78
2022/01/12 00:35:43;;;;;;;0.93;0.80;;;3.10;99.90;;;;;;5137989;27;20038;-79
2022/01/12 00:38:10;;;;;;;0.93;0.93;;;3.10;99.90;;;;;;5138128;27;20402;-79
2022/01/12 00:40:41;;;;;;;0.80;0.80;;;3.10;99.90;;;;;;5156161;27;20043;-77
2022/01/12 00:43:08;;;;;;;4.25;2.78;;;3.10;99.90;;;;;;5137932;27;20043;-79
2022/01/12 00:45:37;;;;;;;1.10;1.10;;;3.10;99.90;;;;;;5156097;27;20046;-79
2022/01/12 00:48:03;;;;;;;1.20;1.17;;;3.10;99.90;;;;;;5156420;27;20059;-77
2022/01/12 00:50:29;;;;;;;0.70;0.70;;;3.10;99.90;;;;;;5137366;27;20078;-79
2022/01/12 00:52:54;;;;;;;1.38;1.27;;;3.10;99.90;;;;;;5121100;27;20081;-78
2022/01/12 00:55:20;;;;;;;0.93;0.93;;;3.10;99.90;;;;;;5137236;27;20041;-79
2022/01/12 00:57:47;;;;;;;1.52;1.13;;;3.10;99.90;;;;;;5155542;27;20130;-79
2022/01/12 01:00:13;;;;;;;0.80;0.80;;;2.80;99.90;;;;;;5137585;27;20051;-77
2022/01/12 01:02:39;;;;;;;0.65;0.65;;;3.00;99.90;;;;;;5119978;27;20047;-78
2022/01/12 01:05:05;;;;;;;0.68;0.68;;;3.00;99.90;;;;;;5120117;27;20390;-77
2022/01/12 01:07:31;;;;;;;0.70;0.70;;;3.00;99.90;;;;;;5137560;27;20398;-79
2022/01/12 01:10:05;;;;;;;1.20;1.20;;;3.10;99.90;;;;;;5119559;27;20039;-77
2022/01/12 01:12:35;;;;;;;0.80;0.70;;;3.10;99.90;;;;;;5155807;27;20042;-78
2022/01/12 01:15:06;;;;;;;2.83;2.40;;;3.10;99.90;;;;;;5137190;27;20049;-79
2022/01/12 01:25:49;;;;;;;0.85;0.80;;;3.10;99.90;;;;;;5155138;27;20116;-77
2022/01/12 01:28:15;;;;;;;;;;;3.10;99.90;;;;;;5156368;27;20047;-79
2022/01/12 01:30:42;;;;;;;1.00;0.90;;;3.10;99.90;;;;;;5159774;27;19919;-77
2022/01/12 01:33:10;;;;;;;2.25;1.90;;;3.10;99.90;;;;;;5124182;27;20050;-79
2022/01/12 01:35:43;;;;;;;1.25;1.15;;;3.10;99.90;;;;;;5141443;27;20471;-78
2022/01/12 01:38:09;;;;;;;1.35;1.25;;;3.10;99.90;;;;;;5159617;27;20042;-77
2022/01/12 01:40:38;;;;;;;2.15;2.05;;;3.10;99.90;;;;;;5124279;27;20065;-77
2022/01/12 01:53:50;;;;;;;0.60;0.60;;;3.10;99.90;;;;;;5159407;27;20130;-77
2022/01/12 01:56:18;;;;;;;1.30;1.20;;;3.10;99.90;;;;;;5123666;27;20498;-79
2022/01/12 01:58:45;;;;;;;0.50;0.50;;;3.50;99.90;;;;;;5141136;27;20043;-77
2022/01/12 02:01:10;;;;;;;0.65;0.65;;;3.10;99.90;;;;;;5140955;27;20091;-78
2022/01/12 02:03:36;;;;;;;0.70;0.70;;;3.10;99.90;;;;;;5140755;27;20043;-78
2022/01/12 02:06:07;;;;;;;0.60;0.60;;;3.20;99.90;;;;;;5141044;27;20111;-79
2022/01/12 02:08:32;;;;;;;0.60;0.60;;;3.10;99.90;;;;;;5140797;27;20042;-79
2022/01/12 02:10:59;;;;;;;0.63;0.63;;;3.20;99.90;;;;;;5159136;27;20175;-79
2022/01/12 02:13:25;;;;;;;0.60;0.60;;;3.20;99.90;;;;;;5158891;27;20084;-77
2022/01/12 02:15:52;;;;;;;5.28;3.03;;;3.20;99.90;;;;;;5158766;27;20053;-77
2022/01/12 02:39:50;;;;;;;1.00;1.00;;;3.20;99.90;;;;;;5140243;27;20099;-78
2022/01/12 02:40:39;;;;;;;0.60;0.60;;;3.20;99.90;;;;;;5139934;27;20406;-79
2022/01/12 02:53:40;;;;;;;1.25;1.08;;;3.20;99.90;;;;;;5140121;27;20145;-79
2022/01/12 02:56:35;;;;;;;0.57;0.57;;;3.20;99.90;;;;;;5139975;27;20091;-77
2022/01/12 02:59:02;;;;;;;0.60;0.60;;;3.20;99.90;;;;;;5122771;27;20051;-77
2022/01/12 03:03:59;;;;;;;1.70;1.60;;;3.30;99.90;;;;;;5157693;27;20043;-76
2022/01/12 03:06:32;;;;;;;1.70;1.60;;;3.20;99.90;;;;;;5139355;27;20054;-78
2022/01/12 03:09:00;;;;;;;0.80;0.80;;;3.20;99.90;;;;;;5158128;27;20126;-79
2022/01/12 03:11:27;;;;;;;0.60;0.60;;;3.30;99.90;;;;;;5105612;27;20562;-79
2022/01/12 03:13:54;;;;;;;0.70;0.70;;;3.30;99.90;;;;;;5158090;27;20045;-79
2022/01/12 03:16:24;;;;;;;0.82;0.82;;;3.30;99.90;;;;;;5157743;27;20083;-79
2022/01/12 03:18:51;;;;;;;0.80;0.80;;;3.40;99.90;;;;;;5122257;27;20567;-78
2022/01/12 03:21:20;;;;;;;0.60;0.60;;;3.30;99.90;;;;;;5122823;27;20099;-77
2022/01/12 03:23:46;;;;;;;0.65;0.65;;;3.80;99.90;;;;;;5139360;27;20109;-79
2022/01/12 03:26:12;;;;;;;0.90;0.90;;;3.40;99.90;;;;;;5157636;27;20078;-79
2022/01/12 03:28:39;;;;;;;0.98;0.85;;;3.30;99.90;;;;;;5157413;27;20086;-76
2022/01/12 03:38:57;;;;;;;0.60;0.60;;;3.40;99.90;;;;;;5157249;27;20043;-79
2022/01/12 03:41:25;;;;;;;3.15;2.45;;;3.40;99.90;;;;;;5157328;27;20050;-79
2022/01/12 03:43:51;;;;;;;0.98;0.98;;;3.40;99.90;;;;;;5138919;27;20042;-78
2022/01/12 03:46:19;;;;;;;12.93;4.13;;;3.40;99.90;;;;;;5157319;27;20057;-78
2022/01/12 03:48:44;;;;;;;1.88;1.77;;;3.50;99.90;;;;;;5138552;27;20133;-79
2022/01/12 03:51:10;;;;;;;0.60;0.60;;;3.50;99.90;;;;;;5121082;27;20499;-77
2022/01/12 03:53:35;;;;;;;0.75;0.73;;;3.50;99.90;;;;;;5157779;27;20051;-77
2022/01/12 03:56:01;;;;;;;0.60;0.60;;;3.50;99.90;;;;;;5138653;27;20054;-77
2022/01/12 03:58:27;;;;;;;0.60;0.60;;;3.50;99.90;;;;;;5156979;27;20475;-76
2022/01/12 04:00:52;;;;;;;0.60;0.60;;;3.50;99.90;;;;;;5138635;27;20114;-78
2022/01/12 04:03:18;;;;;;;0.70;0.70;;;3.40;99.90;;;;;;5156708;27;20154;-77
2022/01/12 04:08:24;;;;;;;0.60;0.60;;;3.50;99.90;;;;;;5156770;27;20047;-78
2022/01/12 04:10:53;;;;;;;1.38;1.27;;;3.50;99.90;;;;;;5156561;27;20034;-77
2022/01/12 04:13:22;;;;;;;0.70;0.70;;;3.60;99.90;;;;;;5157160;27;20053;-77
2022/01/12 04:15:51;;;;;;;2.80;1.13;;;3.50;99.90;;;;;;5156626;27;20047;-78
2022/01/12 04:18:17;;;;;;;1.00;0.85;;;3.50;99.90;;;;;;5156521;27;20046;-77
2022/01/12 04:20:46;;;;;;;0.90;0.90;;;3.50;99.90;;;;;;5156607;27;20041;-78
2022/01/12 04:23:20;;;;;;;0.60;0.60;;;3.60;99.90;;;;;;5156357;27;20068;-77
2022/01/12 04:25:57;;;;;;;0.82;0.82;;;3.60;99.90;;;;;;5156427;27;20047;-77
2022/01/12 04:28:25;;;;;;;0.60;0.60;;;3.60;99.90;;;;;;5157005;27;20047;-77
2022/01/12 04:30:52;;;;;;;0.60;0.60;;;3.60;99.90;;;;;;5156411;27;20522;-79
2022/01/12 04:33:19;;;;;;;0.60;0.60;;;3.60;99.90;;;;;;5156099;27;20137;-77
2022/01/12 04:35:49;;;;;;;0.60;0.60;;;3.60;99.90;;;;;;5156030;27;20082;-78
2022/01/12 04:38:16;;;;;;;0.60;0.60;;;3.70;99.90;;;;;;5155858;27;20480;-79
2022/01/12 04:40:42;;;;;;;0.60;0.60;;;3.60;99.90;;;;;;5137400;27;20050;-78
2022/01/12 04:43:09;;;;;;;1.00;0.88;;;3.60;99.90;;;;;;5156009;27;20050;-76
2022/01/12 04:45:57;;;;;;;1.02;0.98;;;3.60;99.90;;;;;;5155962;27;20047;-76
2022/01/12 04:50:53;;;;;;;0.60;0.60;;;3.60;99.90;;;;;;5155869;27;20375;-77
2022/01/12 04:53:19;;;;;;;0.70;0.70;;;3.60;99.90;;;;;;5155730;27;20043;-76
2022/01/12 04:55:46;;;;;;;1.93;1.83;;;3.60;99.90;;;;;;5137605;27;20393;-77
2022/01/12 04:58:12;;;;;;;1.05;0.85;;;3.60;99.90;;;;;;5155636;27;20042;-77
2022/01/12 05:00:38;;;;;;;0.70;0.70;;;3.60;99.90;;;;;;5155640;27;20042;-77
2022/01/12 05:13:49;;;;;;;1.38;1.27;;;3.60;99.90;;;;;;5137335;27;20047;-78
2022/01/12 05:16:15;;;;;;;0.85;0.85;;;3.60;99.90;;;;;;5120274;27;20042;-78
2022/01/12 05:18:43;;;;;;;0.60;0.60;;;3.60;99.90;;;;;;5155406;27;20039;-78
2022/01/12 05:21:10;;;;;;;1.23;0.95;;;3.70;99.90;;;;;;5137229;27;20537;-77
2022/01/12 05:23:36;;;;;;;2.15;2.05;;;3.60;99.90;;;;;;5137397;27;20043;-77
2022/01/12 05:26:02;;;;;;;0.60;0.60;;;3.60;99.90;;;;;;5155309;27;20043;-77
2022/01/12 05:28:29;;;;;;;1.00;1.00;;;3.60;99.90;;;;;;5137751;27;20046;-78
2022/01/12 05:30:55;;;;;;;0.90;0.90;;;3.50;99.90;;;;;;5155204;27;20126;-77
2022/01/12 05:33:23;;;;;;;0.90;0.90;;;3.50;99.90;;;;;;5137179;27;20046;-77
2022/01/12 05:35:49;;;;;;;1.67;1.23;;;3.50;99.90;;;;;;5137220;27;20042;-77
2022/01/12 05:38:15;;;;;;;1.90;1.80;;;3.40;99.90;;;;;;5136828;27;20043;-78
2022/01/12 05:40:46;;;;;;;1.00;1.00;;;3.40;99.90;;;;;;5136410;27;20479;-78
2022/01/12 05:43:17;;;;;;;0.77;0.77;;;3.40;99.90;;;;;;5137623;27;20050;-76
2022/01/12 05:45:45;;;;;;;8.90;3.60;;;3.30;99.90;;;;;;5136733;27;20062;-77
2022/01/12 05:50:38;;;;;;;0.60;0.60;;;3.30;99.90;;;;;;5136681;27;20038;-77
2022/01/12 05:53:04;;;;;;;3.42;1.30;;;3.20;99.90;;;;;;5136916;27;20485;-79
2022/01/12 05:55:30;;;;;;;1.73;1.63;;;3.20;99.90;;;;;;5155022;27;20074;-76
2022/01/12 05:57:55;;;;;;;0.60;0.60;;;3.20;99.90;;;;;;5155166;27;20081;-78
2022/01/12 06:00:23;;;;;;;0.70;0.70;;;3.20;99.90;;;;;;5137362;27;20050;-76
2022/01/12 06:02:49;;;;;;;0.55;0.55;;;3.20;99.90;;;;;;5154988;27;20409;-79
2022/01/12 06:05:15;;;;;;;0.68;0.68;;;3.20;99.90;;;;;;5136918;27;20039;-77
2022/01/12 06:07:43;;;;;;;1.02;1.00;;;3.20;99.90;;;;;;5154972;27;20047;-75
2022/01/12 06:10:09;;;;;;;0.60;0.60;;;3.20;99.90;;;;;;5136888;27;20043;-77
2022/01/12 06:12:35;;;;;;;0.70;0.70;;;3.20;99.90;;;;;;5136773;27;20038;-76
2022/01/12 06:15:01;;;;;;;0.60;0.60;;;3.30;99.90;;;;;;5156585;27;20479;-78
2022/01/12 06:17:26;;;;;;;0.63;0.63;;;3.20;99.90;;;;;;5140524;27;20035;-78
2022/01/12 06:19:52;;;;;;;0.60;0.60;;;3.20;99.90;;;;;;5140320;27;20475;-77
2022/01/12 06:22:18;;;;;;;1.30;1.20;;;3.20;99.90;;;;;;5140323;27;20049;-76
2022/01/12 06:24:43;;;;;;;0.60;0.60;;;3.20;99.90;;;;;;5139974;27;20082;-77
2022/01/12 06:27:13;;;;;;;0.60;0.60;;;3.30;99.90;;;;;;5159026;27;20386;-79
2022/01/12 06:30:01;;;;;;;0.60;0.60;;;3.30;99.90;;;;;;5158313;27;20505;-77
2022/01/12 06:32:27;;;;;;;0.55;0.55;;;3.40;99.90;;;;;;5140666;27;20051;-79
2022/01/12 06:34:53;;;;;;;5.85;2.50;;;3.30;99.90;;;;;;5158447;27;20039;-79
2022/01/12 06:37:19;;;;;;;0.60;0.60;;;3.30;99.90;;;;;;5158663;27;20051;-79
2022/01/12 06:39:45;;;;;;;0.60;0.60;;;3.30;99.90;;;;;;5123815;27;20035;-76
2022/01/12 06:42:10;;;;;;;0.60;0.60;;;3.50;99.90;;;;;;5122790;27;20115;-78
2022/01/12 06:44:36;;;;;;;0.60;0.60;;;3.40;99.90;;;;;;5158275;27;20045;-77
2022/01/12 06:47:03;;;;;;;0.60;0.60;;;3.40;99.90;;;;;;5158338;27;20149;-79
2022/01/12 06:49:29;;;;;;;0.50;0.50;;;3.40;99.90;;;;;;5158028;27;20035;-78
2022/01/12 06:51:55;;;;;;;0.60;0.60;;;3.40;99.90;;;;;;5139892;27;20046;-78
2022/01/12 06:54:21;;;;;;;0.57;0.57;;;3.40;99.90;;;;;;5158557;27;20584;-80
2022/01/12 06:56:47;;;;;;;1.02;1.02;;;3.40;99.90;;;;;;5158078;27;20099;-83
2022/01/12 06:59:12;;;;;;;3.03;1.10;;;3.70;99.90;;;;;;5158119;27;20095;-78
2022/01/12 07:01:38;;;;;;;0.95;0.95;;;3.40;99.90;;;;;;5139621;27;20430;-78
2022/01/12 07:04:04;;;;;;;0.60;0.60;;;3.40;99.90;;;;;;5157951;27;20042;-76
2022/01/12 07:06:30;;;;;;;1.75;1.65;;;3.40;99.90;;;;;;5157656;27;20047;-76
2022/01/12 07:08:55;;;;;;;0.50;0.50;;;3.30;99.90;;;;;;5157807;27;20042;-77
2022/01/12 07:11:22;;;;;;;0.50;0.50;;;3.30;99.90;;;;;;5158158;27;20043;-77
2022/01/12 07:13:47;;;;;;;0.98;0.98;;;3.20;99.90;;;;;;5139517;27;20051;-76
2022/01/12 07:16:13;;;;;;;0.60;0.60;;;3.20;99.90;;;;;;5139225;27;20497;-77
2022/01/12 07:18:39;;;;;;;0.60;0.60;;;3.10;99.90;;;;;;5139497;27;20493;-77
2022/01/12 07:21:05;;;;;;;0.50;0.50;;;3.10;99.90;;;;;;5157436;27;20092;-76
2022/01/12 07:23:30;;;;;;;0.60;0.60;;;3.00;99.90;;;;;;5157966;27;20043;-77
2022/01/12 07:25:56;;;;;;;1.60;1.50;;;3.00;99.90;;;;;;5156475;27;20049;-78
2022/01/12 07:28:23;;;;;;;0.60;0.60;;;3.00;99.90;;;;;;5157364;27;20085;-76
2022/01/12 07:30:49;;;;;;;0.60;0.60;;;2.90;99.90;;;;;;5138847;27;20038;-76
2022/01/12 07:33:15;;;;;;;0.60;0.60;;;3.00;99.90;;;;;;5157450;27;20078;-76
2022/01/12 07:35:43;;;;;;;1.00;1.00;;;2.90;99.90;;;;;;5138893;27;20076;-78
2022/01/12 07:38:08;;;;;;;0.60;0.60;;;3.10;99.90;;;;;;5139373;27;20134;-77
2022/01/12 07:40:35;;;;;;;1.13;1.02;;;2.80;99.90;;;;;;5139107;27;20074;-76
2022/01/12 07:43:04;;;;;;;;;;;2.80;99.90;;;;;;5139325;27;20121;-78
2022/01/12 07:45:31;;;;;;;0.80;0.80;;;2.80;99.90;;;;;;5157221;27;19926;-78
2022/01/12 07:47:56;;;;;;;0.50;0.50;;;2.80;99.90;;;;;;5157160;27;20059;-78
2022/01/12 07:50:22;;;;;;;0.60;0.60;;;2.80;99.90;;;;;;5156973;27;20039;-76
2022/01/12 07:52:48;;;;;;;0.80;0.80;;;2.70;99.90;;;;;;5138716;27;20049;-78
2022/01/12 07:55:14;;;;;;;0.60;0.60;;;2.80;99.90;;;;;;5157358;27;20053;-77
2022/01/12 07:57:42;;;;;;;0.60;0.60;;;2.80;99.90;;;;;;5138863;27;20035;-78
2022/01/12 08:00:08;;;;;;;0.70;0.70;;;2.80;99.90;;;;;;5156838;27;20038;-78
2022/01/12 08:02:34;;;;;;;0.60;0.60;;;2.80;99.90;;;;;;5138687;27;20043;-76
2022/01/12 08:04:59;;;;;;;0.60;0.60;;;2.80;99.90;;;;;;5156947;27;20049;-76
2022/01/12 08:07:25;;;;;;;0.73;0.73;;;2.80;99.90;;;;;;5111813;27;20051;-74
2022/01/12 08:09:51;;;;;;;1.05;1.05;;;2.80;99.90;;;;;;5104476;28;20092;-75
2022/01/12 08:12:16;;;;;;;1.83;1.73;;;2.90;99.90;;;;;;5097292;28;20538;-74
2022/01/12 08:14:42;;;;;;;0.82;0.82;;;2.20;99.90;;;;;;5115097;28;20096;-80
2022/01/12 08:17:07;;;;;;;0.70;0.70;;;2.80;99.90;;;;;;5115281;28;20050;-79
2022/01/12 08:19:37;;;;;;;10.77;2.22;;;2.80;99.90;;;;;;5119456;27;20117;-78
2022/01/12 08:22:04;;;;;;;0.90;0.90;;;2.80;99.90;;;;;;5118690;27;20407;-77
2022/01/12 08:24:30;;;;;;;0.70;0.70;;;2.70;99.90;;;;;;5097938;27;20066;-79
2022/01/12 08:26:55;;;;;;;0.80;0.80;;;2.70;99.90;;;;;;5117299;27;20142;-76
2022/01/12 08:29:22;;;;;;;0.93;0.93;;;2.60;99.90;;;;;;5096618;28;20387;-77
2022/01/12 08:31:48;;;;;;;;;;;2.60;99.90;;;;;;5133245;27;20054;-78
2022/01/12 08:34:14;;;;;;;0.60;0.60;;;2.60;99.90;;;;;;5135424;27;20006;-77
2022/01/12 08:36:41;;;;;;;0.60;0.60;;;2.60;99.90;;;;;;5117398;27;20091;-77
2022/01/12 08:39:08;;;;;;;0.60;0.60;;;2.50;99.90;;;;;;5135210;27;20036;-77
2022/01/12 08:41:35;;;;;;;0.60;0.60;;;2.50;99.90;;;;;;5135379;27;20056;-76
2022/01/12 08:44:00;;;;;;;0.70;0.70;;;2.50;99.90;;;;;;5135344;27;20039;-75
2022/01/12 08:46:26;;;;;;;0.90;0.90;;;2.50;99.90;;;;;;5135419;27;20470;-76
2022/01/12 08:48:52;;;;;;;0.70;0.70;;;2.50;99.90;;;;;;5135284;27;20096;-78
2022/01/12 08:51:17;;;;;;;0.60;0.60;;;2.60;99.90;;;;;;5117908;27;20123;-77
2022/01/12 08:53:43;;;;;;;0.60;0.60;;;2.90;99.90;;;;;;5118025;27;20070;-78
2022/01/12 08:56:08;;;;;;;0.60;0.60;;;2.60;99.90;;;;;;5117247;27;20046;-78
2022/01/12 08:58:34;;;;;;;0.60;0.60;;;2.60;99.90;;;;;;5155815;27;20050;-79
2022/01/12 09:01:03;;;;;;;0.60;0.60;;;2.60;99.90;;;;;;5120604;27;20035;-78
2022/01/12 09:03:30;;;;;;;1.85;1.35;;;2.70;99.90;;;;;;5155709;27;20046;-82
2022/01/12 09:05:56;;;;;;;0.60;0.60;;;2.70;99.90;;;;;;5155694;27;20042;-79
2022/01/12 09:08:21;;;;;;;0.60;0.60;;;2.70;99.90;;;;;;5137476;27;20050;-76
2022/01/12 09:10:47;;;;;;;0.80;0.80;;;2.80;99.90;;;;;;5155867;27;20133;-77
2022/01/12 09:13:13;;;;;;;0.60;0.60;;;2.80;99.90;;;;;;5155551;27;20068;-75
2022/01/12 09:15:38;;;;;;;0.60;0.60;;;2.80;99.90;;;;;;5137036;27;20418;-78
2022/01/12 09:18:04;;;;;;;0.60;0.60;;;2.90;99.90;;;;;;5155123;27;20054;-76
2022/01/12 09:20:30;;;;;;;1.55;1.45;;;2.90;99.90;;;;;;5156007;27;20035;-77
2022/01/12 09:22:56;;;;;;;1.70;1.60;;;3.00;99.90;;;;;;5155385;27;20482;-77
2022/01/12 09:25:21;;;;;;;0.70;0.70;;;3.10;99.90;;;;;;5136966;27;20467;-78
2022/01/12 09:27:47;;;;;;;3.03;2.75;;;3.20;99.90;;;;;;5155181;27;20098;-79
2022/01/12 09:30:15;;;;;;;2.53;2.30;;;3.20;99.90;;;;;;5136777;27;20050;-78
2022/01/12 09:32:40;;;;;;;0.50;0.50;;;3.30;99.90;;;;;;5130655;28;20122;-78
2022/01/12 09:35:08;;;;;;;0.60;0.60;;;3.40;99.90;;;;;;5122875;28;20043;-78
2022/01/12 09:37:34;;;;;;;1.13;1.00;;;3.50;99.90;;;;;;5115731;28;20053;-78
2022/01/12 09:40:00;;;;;;;0.70;0.70;;;3.50;99.90;;;;;;5116174;28;20550;-77
2022/01/12 09:42:25;;;;;;;0.50;0.50;;;3.60;99.90;;;;;;5116010;28;20043;-78
2022/01/12 09:44:51;;;;;;;1.52;1.45;;;3.70;99.90;;;;;;5134224;28;20475;-78
2022/01/12 09:47:17;;;;;;;1.23;1.13;;;3.70;99.90;;;;;;5115406;28;20047;-78
2022/01/12 09:49:44;;;;;;;1.08;1.02;;;3.80;99.90;;;;;;5135146;27;20046;-79
2022/01/12 09:52:09;;;;;;;;;;;3.90;99.90;;;;;;5120675;27;20039;-78
2022/01/12 09:54:36;;;;;;;0.60;0.60;;;4.00;99.90;;;;;;5119789;27;20006;-80
2022/01/12 09:57:03;;;;;;;0.50;0.50;;;4.10;99.90;;;;;;5137900;27;20401;-79
2022/01/12 09:59:28;;;;;;;0.60;0.60;;;4.20;99.90;;;;;;5138013;27;20035;-79
2022/01/12 10:01:55;;;;;;;0.50;0.50;;;6.00;99.90;;;;;;5138357;27;20050;-77
2022/01/12 10:04:25;;;;;;;1.95;1.85;;;4.30;99.90;;;;;;5138085;27;20051;-79
2022/01/12 10:07:01;;;;;;;0.80;0.80;;;4.40;99.90;;;;;;5086520;27;20047;-80
2022/01/12 10:09:38;;;;;;;0.70;0.70;;;4.50;99.90;;;;;;5137744;27;20390;-79
2022/01/12 10:12:10;;;;;;;0.50;0.50;;;4.50;99.90;;;;;;5102860;27;20054;-78
2022/01/12 10:14:52;;;;;;;0.50;0.50;;;4.50;99.90;;;;;;5137929;27;20054;-78
2022/01/12 10:17:39;;;;;;;0.60;0.60;;;4.60;99.90;;;;;;5137998;27;20082;-78
2022/01/12 10:20:12;;;;;;;0.65;0.65;;;4.60;99.90;;;;;;5137653;27;20047;-77
2022/01/12 10:22:42;;;;;;;1.67;1.58;;;4.70;99.90;;;;;;5137825;27;20183;-77
2022/01/12 10:25:21;;;;;;;1.60;1.50;;;4.70;99.90;;;;;;5119737;27;20051;-77
2022/01/12 10:27:47;;;;;;;0.50;0.50;;;4.70;99.90;;;;;;5119637;27;20383;-79
2022/01/12 10:30:21;;;;;;;0.60;0.60;;;4.80;99.90;;;;;;5137193;27;20506;-80
2022/01/12 10:32:59;;;;;;;0.73;0.73;;;4.80;99.90;;;;;;5118945;27;20055;-79
2022/01/12 10:35:29;;;;;;;1.02;1.02;;;4.80;99.90;;;;;;5119133;27;20081;-79
2022/01/12 10:38:09;;;;;;;0.60;0.60;;;4.90;99.90;;;;;;5137356;27;20046;-78
2022/01/12 10:40:48;;;;;;;0.70;0.70;;;4.90;99.90;;;;;;5137785;27;20058;-79
2022/01/12 10:43:41;;;;;;;0.50;0.50;;;5.00;99.90;;;;;;5137308;27;20039;-77
2022/01/12 10:46:18;;;;;;;0.60;0.60;;;5.00;99.90;;;;;;5137279;27;20035;-79
2022/01/12 10:48:46;;;;;;;0.60;0.60;;;5.10;99.90;;;;;;5137104;27;20451;-78
2022/01/12 10:51:20;;;;;;;0.60;0.60;;;5.10;99.90;;;;;;5119298;27;20049;-78
2022/01/12 10:53:46;;;;;;;0.70;0.70;;;5.20;99.90;;;;;;5118831;27;20039;-79
2022/01/12 10:56:20;;;;;;;1.05;0.75;;;5.20;99.90;;;;;;5137314;27;20047;-78
2022/01/12 10:58:49;;;;;;;0.98;0.93;;;5.30;99.90;;;;;;5119146;27;20046;-78
2022/01/12 11:01:18;;;;;;;0.60;0.60;;;5.30;99.90;;;;;;5117328;27;20394;-79
2022/01/12 11:03:45;;;;;;;0.50;0.50;;;5.40;99.90;;;;;;5136489;27;20055;-78
2022/01/12 11:06:12;;;;;;;0.60;0.60;;;5.40;99.90;;;;;;5118913;27;20058;-77
2022/01/12 11:08:39;;;;;;;0.60;0.60;;;5.40;99.90;;;;;;5136560;27;20054;-78
2022/01/12 11:11:06;;;;;;;0.50;0.50;;;5.40;99.90;;;;;;5101200;27;20127;-78
2022/01/12 11:13:32;;;;;;;1.02;1.02;;;5.40;99.90;;;;;;5118586;27;20074;-79
2022/01/12 11:15:59;;;;;;;0.52;0.52;;;5.50;99.90;;;;;;5132865;27;20047;-78
2022/01/12 11:18:31;;;;;;;11.52;1.45;;;5.50;99.90;;;;;;5126477;27;20047;-78
2022/01/12 11:21:05;;;;;;;0.60;0.60;;;5.50;99.90;;;;;;5118273;27;20051;-76
2022/01/12 11:23:37;;;;;;;0.50;0.50;;;5.40;99.90;;;;;;5118558;27;20047;-76
2022/01/12 11:26:53;;;;;;;0.50;0.50;;;5.40;99.90;;;;;;5136994;27;20165;-76
2022/01/12 11:29:34;;;;;;;0.80;0.80;;;5.50;99.90;;;;;;5136381;27;20506;-75
2022/01/12 11:32:13;;;;;;;1.30;1.25;;;5.50;99.90;;;;;;5136141;27;20043;-75
2022/01/12 11:34:40;;;;;;;0.50;0.50;;;5.60;99.90;;;;;;5135304;27;20095;-75
2022/01/12 11:37:14;;;;;;;1.25;1.15;;;5.50;99.90;;;;;;5134927;27;20039;-75
2022/01/12 11:39:39;;;;;;;0.60;0.60;;;5.60;99.90;;;;;;5134304;27;20043;-75
2022/01/12 11:42:05;;;;;;;0.55;0.55;;;5.60;99.90;;;;;;5135473;27;20053;-74
2022/01/12 11:44:35;;;;;;;0.57;0.57;;;5.70;99.90;;;;;;5135773;27;20095;-75
2022/01/12 11:47:03;;;;;;;0.50;0.50;;;5.70;99.90;;;;;;5117820;27;20112;-76
2022/01/12 11:49:44;;;;;;;7.72;2.15;;;5.60;99.90;;;;;;5133930;27;20125;-81
2022/01/12 11:52:26;;;;;;;0.50;0.50;;;5.80;99.90;;;;;;5150617;27;20069;-79
2022/01/12 11:55:06;;;;;;;0.60;0.60;;;5.90;99.90;;;;;;5126868;27;20043;-77
2022/01/12 11:57:34;;;;;;;0.57;0.57;;;6.00;99.90;;;;;;5135805;27;20043;-77
2022/01/12 12:00:12;;;;;;;0.50;0.50;;;6.10;99.90;;;;;;5135537;27;20039;-79
2022/01/12 12:02:39;;;;;;;0.50;0.50;;;6.20;99.90;;;;;;5135850;27;20049;-77
2022/01/12 12:05:10;;;;;;;0.80;0.80;;;6.30;99.90;;;;;;5135413;27;20043;-77
2022/01/12 12:07:52;;;;;;;0.50;0.50;;;6.30;99.90;;;;;;5135599;27;20134;-77
2022/01/12 12:10:21;;;;;;;0.60;0.60;;;6.20;99.90;;;;;;5135558;27;20126;-77
2022/01/12 12:12:47;;;;;;;0.60;0.60;;;6.20;99.90;;;;;;5117208;27;20078;-77
2022/01/12 12:15:13;;;;;;;0.50;0.50;;;6.10;99.90;;;;;;5117590;27;20130;-78
2022/01/12 12:17:41;;;;;;;0.50;0.50;;;6.10;99.90;;;;;;5135340;27;20462;-77
2022/01/12 12:20:10;;;;;;;0.50;0.50;;;6.00;99.90;;;;;;5135328;27;20090;-77
2022/01/12 12:22:40;;;;;;;0.50;0.50;;;6.00;99.90;;;;;;5117292;27;20100;-77
2022/01/12 12:25:06;;;;;;;0.60;0.60;;;6.00;99.90;;;;;;5135176;27;20069;-75
2022/01/12 12:27:37;;;;;;;1.20;0.82;;;5.90;99.90;;;;;;5135159;27;20047;-77
2022/01/12 12:30:30;;;;;;;0.50;0.50;;;5.90;99.90;;;;;;5116908;27;20131;-77
2022/01/12 12:33:06;;;;;;;0.55;0.55;;;5.90;99.90;;;;;;5114879;27;20092;-76
2022/01/12 12:35:33;;;;;;;0.52;0.52;;;5.90;99.90;;;;;;5134998;27;20054;-77
2022/01/12 12:38:05;;;;;;;0.70;0.70;;;5.90;99.90;;;;;;5117060;27;20046;-76
2022/01/12 12:40:37;;;;;;;0.77;0.63;;;6.00;99.90;;;;;;5117189;27;20061;-77
2022/01/12 12:43:18;;;;;;;0.50;0.50;;;6.00;99.90;;;;;;5116404;27;20058;-77
2022/01/12 12:45:49;;;;;;;0.60;0.60;;;6.00;99.90;;;;;;5116848;27;20047;-77
2022/01/12 12:48:17;;;;;;;0.60;0.60;;;6.10;99.90;;;;;;5116649;27;20051;-77
2022/01/12 12:50:45;;;;;;;0.60;0.60;;;6.30;99.90;;;;;;5116685;27;20044;-78
2022/01/12 12:53:11;;;;;;;2.75;0.70;;;6.10;99.90;;;;;;5116487;27;20043;-77
2022/01/12 12:55:42;;;;;;;0.77;0.77;;;6.10;99.90;;;;;;5116360;27;20042;-77
2022/01/12 12:58:08;;;;;;;0.50;0.50;;;6.10;99.90;;;;;;5116373;27;20406;-77
2022/01/12 13:00:36;;;;;;;0.50;0.50;;;6.00;99.90;;;;;;5116734;27;20114;-78
2022/01/12 13:03:03;;;;;;;0.50;0.50;;;6.10;99.90;;;;;;5134626;27;20050;-78
2022/01/12 13:05:34;;;;;;;0.50;0.50;;;6.10;99.90;;;;;;5134465;27;20043;-77
2022/01/12 13:08:01;;;;;;;0.50;0.50;;;6.10;99.90;;;;;;5116470;27;20054;-77
2022/01/12 13:10:33;;;;;;;0.60;0.60;;;6.10;99.90;;;;;;5116330;27;20035;-77
2022/01/12 13:13:02;;;;;;;1.05;0.98;;;6.20;99.90;;;;;;5134380;27;20046;-77
2022/01/12 13:15:30;;;;;;;1.23;1.15;;;6.20;99.90;;;;;;5099245;28;20466;-79
2022/01/12 13:18:00;;;;;;;7.43;3.85;;;6.20;99.90;;;;;;5099495;27;20429;-78
2022/01/12 13:23:04;;;;;;;1.45;1.35;;;6.20;99.90;;;;;;5134345;27;20065;-78
2022/01/12 13:25:31;;;;;;;0.95;0.88;;;6.20;99.90;;;;;;5133433;27;20047;-80
2022/01/12 13:27:58;;;;;;;1.00;1.00;;;6.20;99.90;;;;;;5134633;28;20074;-80
2022/01/12 13:30:31;;;;;;;0.50;0.50;;;6.20;99.90;;;;;;5134409;28;20376;-78
2022/01/12 13:32:58;;;;;;;1.85;1.38;;;6.20;99.90;;;;;;5116578;28;20553;-77
2022/01/12 13:35:30;;;;;;;0.98;0.98;;;6.20;99.90;;;;;;5134660;28;20054;-79
2022/01/12 13:37:59;;;;;;;0.50;0.50;;;6.20;99.90;;;;;;5116612;28;20165;-77
2022/01/12 13:40:33;;;;;;;0.50;0.50;;;6.20;99.90;;;;;;5148641;27;20049;-78
2022/01/12 13:43:00;;;;;;;0.50;0.50;;;6.30;99.90;;;;;;5137352;27;20046;-78
2022/01/12 13:45:36;;;;;;;0.60;0.60;;;6.30;99.90;;;;;;5154509;27;20487;-79
2022/01/12 13:48:11;;;;;;;0.73;0.73;;;6.30;99.90;;;;;;5134990;27;20138;-78
2022/01/12 13:50:38;;;;;;;0.50;0.50;;;6.30;99.90;;;;;;5136263;27;20069;-78
2022/01/12 13:53:05;;;;;;;0.77;0.77;;;6.20;99.90;;;;;;5137128;27;20402;-78
2022/01/12 13:55:32;;;;;;;1.13;1.08;;;6.20;99.90;;;;;;5155242;27;20043;-78
2022/01/12 13:58:10;;;;;;;8.40;0.95;;;6.20;99.90;;;;;;5156343;27;20478;-78
2022/01/12 14:00:37;;;;;;;0.50;0.50;;;6.10;99.90;;;;;;5138848;27;20046;-77
2022/01/12 14:03:16;;;;;;;0.50;0.50;;;6.10;99.90;;;;;;5156968;27;20399;-77
2022/01/12 14:05:42;;;;;;;0.50;0.50;;;6.10;99.90;;;;;;5155018;27;20478;-78
2022/01/12 14:08:13;;;;;;;1.05;0.95;;;6.10;99.90;;;;;;5155309;27;20043;-79
2022/01/12 14:10:44;;;;;;;2.58;1.48;;;6.10;99.90;;;;;;5154887;27;20035;-78
2022/01/12 14:13:11;;;;;;;0.70;0.70;;;6.10;99.90;;;;;;5154910;27;20095;-78
2022/01/12 14:15:36;;;;;;;0.50;0.50;;;6.00;99.90;;;;;;5155362;27;20089;-78
2022/01/12 14:18:05;;;;;;;0.98;0.98;;;6.00;99.90;;;;;;5154893;27;20139;-78
2022/01/12 14:20:37;;;;;;;1.58;1.48;;;5.90;99.90;;;;;;5154936;27;20043;-78
2022/01/12 14:23:08;;;;;;;0.60;0.60;;;5.80;99.90;;;;;;5154910;27;20047;-78
2022/01/12 14:25:48;;;;;;;0.50;0.50;;;5.80;99.90;;;;;;5154879;27;20137;-78
2022/01/12 14:28:16;;;;;;;0.50;0.50;;;5.70;99.90;;;;;;5155342;27;20449;-78
2022/01/12 14:30:43;;;;;;;0.60;0.60;;;5.70;99.90;;;;;;5154698;27;20035;-79
2022/01/12 14:33:09;;;;;;;1.02;0.93;;;5.60;99.90;;;;;;5154799;27;20043;-78